Time;durP1;ratioP1;P1;durP2;ratioP2;P2;SDS_P1;SDS_P2;PMS_P1;PMS_P2;Temp;Humidity;BMP_temperature;BMP_pressure;BME280_temperature;BME280_humidity;BME280_pressure;Samples;Min_cycle;Max_cycle;Signal;HPM_P1;HPM_P2
2023/08/23 00:00:11;;;;;;;1.10;0.30;;;15.60;99.90;;;;;;4945706;28;20031;-83
2023/08/23 00:02:40;;;;;;;1.05;0.40;;;15.60;99.90;;;;;;4956355;28;20117;-83
2023/08/23 00:05:06;;;;;;;0.98;0.30;;;15.60;99.90;;;;;;4967303;28;20155;-83
2023/08/23 00:07:32;;;;;;;1.38;0.40;;;15.60;99.90;;;;;;4958074;28;20555;-82
2023/08/23 00:09:58;;;;;;;1.67;0.40;;;15.50;99.90;;;;;;4945199;28;20063;-83
2023/08/23 00:12:23;;;;;;;2.20;0.40;;;15.50;99.90;;;;;;4943927;28;20054;-88
2023/08/23 00:14:49;;;;;;;1.23;0.50;;;15.40;99.90;;;;;;4947538;28;20036;-87
2023/08/23 00:17:15;;;;;;;0.90;0.40;;;15.30;99.90;;;;;;4948970;28;20028;-82
2023/08/23 00:19:41;;;;;;;0.90;0.35;;;15.40;99.90;;;;;;4966220;28;20031;-82
2023/08/23 00:22:06;;;;;;;1.40;0.40;;;15.40;99.90;;;;;;4944754;28;20066;-82
2023/08/23 00:24:32;;;;;;;0.88;0.40;;;15.30;99.90;;;;;;4964181;28;20049;-81
2023/08/23 00:26:58;;;;;;;1.13;0.40;;;15.30;99.90;;;;;;4965400;28;20031;-83
2023/08/23 00:29:23;;;;;;;1.23;0.40;;;15.30;99.90;;;;;;4962614;28;20488;-83
2023/08/23 00:31:49;;;;;;;1.75;0.50;;;15.20;99.90;;;;;;4948506;28;20023;-82
2023/08/23 00:34:15;;;;;;;1.13;0.50;;;15.10;99.90;;;;;;4949279;28;20030;-86
2023/08/23 00:36:40;;;;;;;1.92;0.50;;;15.10;99.90;;;;;;4967716;28;20027;-81
2023/08/23 00:39:06;;;;;;;0.98;0.40;;;15.10;99.90;;;;;;4966324;28;20034;-86
2023/08/23 00:41:32;;;;;;;1.00;0.40;;;15.10;99.90;;;;;;4951353;28;20019;-82
2023/08/23 00:43:58;;;;;;;1.75;0.40;;;15.10;99.90;;;;;;4962642;28;20039;-85
2023/08/23 00:46:24;;;;;;;1.90;0.47;;;15.10;99.90;;;;;;4944446;28;20026;-81
2023/08/23 00:48:50;;;;;;;0.95;0.40;;;15.10;99.90;;;;;;4947148;28;20039;-83
2023/08/23 00:51:18;;;;;;;1.38;0.50;;;15.10;99.90;;;;;;4961308;28;20061;-82
2023/08/23 00:53:44;;;;;;;1.58;0.40;;;15.10;99.90;;;;;;4956279;28;20042;-84
2023/08/23 00:56:11;;;;;;;1.50;0.50;;;15.10;99.90;;;;;;4965581;28;20578;-82
2023/08/23 00:58:37;;;;;;;1.70;0.50;;;15.10;99.90;;;;;;4958459;28;20035;-82
2023/08/23 01:01:03;;;;;;;1.17;0.40;;;15.00;99.90;;;;;;4944279;28;20046;-82
2023/08/23 01:03:29;;;;;;;1.90;0.57;;;15.00;99.90;;;;;;4948595;28;20046;-81
2023/08/23 01:06:06;;;;;;;1.75;0.40;;;15.10;99.90;;;;;;4965538;28;20035;-81
2023/08/23 01:08:55;;;;;;;1.52;0.40;;;15.00;99.90;;;;;;4943563;28;20046;-81
2023/08/23 01:11:47;;;;;;;1.80;0.40;;;15.00;99.90;;;;;;4956754;28;20483;-85
2023/08/23 01:14:27;;;;;;;1.10;0.40;;;14.90;99.90;;;;;;4958311;28;20023;-81
2023/08/23 01:16:54;;;;;;;2.95;0.40;;;14.90;99.90;;;;;;4957284;28;20396;-82
2023/08/23 01:19:41;;;;;;;1.45;0.50;;;14.90;99.90;;;;;;4956060;28;20031;-86
2023/08/23 01:22:09;;;;;;;1.65;0.40;;;14.80;99.90;;;;;;4966387;28;20559;-83
2023/08/23 01:24:35;;;;;;;1.23;0.50;;;14.80;99.90;;;;;;4949710;28;20057;-82
2023/08/23 01:27:01;;;;;;;1.38;0.40;;;14.70;99.90;;;;;;4957077;28;20086;-84
2023/08/23 01:29:28;;;;;;;1.52;0.50;;;14.70;99.90;;;;;;4962909;28;20129;-83
2023/08/23 01:32:00;;;;;;;1.50;0.60;;;14.70;99.90;;;;;;4950711;28;20119;-82
2023/08/23 01:34:28;;;;;;;4.05;0.50;;;14.70;99.90;;;;;;4956429;28;20027;-82
2023/08/23 01:36:55;;;;;;;2.33;0.45;;;14.70;99.90;;;;;;4962714;28;20375;-87
2023/08/23 01:39:25;;;;;;;1.45;0.40;;;14.70;99.90;;;;;;4950259;28;20471;-82
2023/08/23 01:41:52;;;;;;;1.35;0.50;;;14.70;99.90;;;;;;4963988;28;20037;-83
2023/08/23 01:44:20;;;;;;;2.15;0.60;;;14.70;99.90;;;;;;4943682;28;20031;-81
2023/08/23 01:46:46;;;;;;;1.30;0.50;;;14.70;99.90;;;;;;4943927;28;20035;-81
2023/08/23 01:49:11;;;;;;;1.30;0.50;;;14.60;99.90;;;;;;4963342;28;20097;-81
2023/08/23 01:51:37;;;;;;;1.30;0.45;;;14.60;99.90;;;;;;4947768;28;20030;-82
2023/08/23 01:54:03;;;;;;;1.95;0.50;;;14.60;99.90;;;;;;4967718;28;20054;-83
2023/08/23 01:56:29;;;;;;;1.50;0.60;;;14.60;99.90;;;;;;4957749;28;20054;-82
2023/08/23 01:58:54;;;;;;;2.15;0.50;;;14.60;99.90;;;;;;4960209;28;20054;-81
2023/08/23 02:01:20;;;;;;;1.65;0.50;;;14.60;99.90;;;;;;4942219;28;20028;-82
2023/08/23 02:03:46;;;;;;;2.55;0.50;;;14.60;99.90;;;;;;4957821;28;20097;-80
2023/08/23 02:06:12;;;;;;;2.00;0.60;;;14.60;99.90;;;;;;4961923;28;20031;-81
2023/08/23 02:08:38;;;;;;;1.20;0.47;;;14.50;99.90;;;;;;4964917;28;20140;-86
2023/08/23 02:11:04;;;;;;;1.20;0.50;;;14.50;99.90;;;;;;4961301;28;20500;-81
2023/08/23 02:13:30;;;;;;;1.08;0.47;;;14.50;99.90;;;;;;4957411;28;20109;-84
2023/08/23 02:15:55;;;;;;;1.00;0.40;;;14.50;99.90;;;;;;4962231;28;20026;-81
2023/08/23 02:18:21;;;;;;;1.25;0.50;;;14.50;99.90;;;;;;4958633;28;20118;-83
2023/08/23 02:20:59;;;;;;;1.55;0.50;;;14.50;99.90;;;;;;4965468;28;20097;-81
2023/08/23 02:23:25;;;;;;;1.30;0.50;;;14.40;99.90;;;;;;4950030;28;20035;-83
2023/08/23 02:25:52;;;;;;;1.20;0.40;;;14.40;99.90;;;;;;4960253;28;20042;-81
2023/08/23 02:28:18;;;;;;;1.95;0.50;;;14.40;99.90;;;;;;4964791;28;20038;-83
2023/08/23 02:30:45;;;;;;;1.08;0.50;;;14.40;99.90;;;;;;4942712;28;20050;-84
2023/08/23 02:33:10;;;;;;;1.65;0.50;;;14.40;99.90;;;;;;4961664;28;20039;-81
2023/08/23 02:35:47;;;;;;;1.33;0.50;;;14.40;99.90;;;;;;4961908;28;20104;-91
2023/08/23 02:38:13;;;;;;;2.00;0.40;;;14.40;99.90;;;;;;4949031;28;20037;-88
2023/08/23 02:40:42;;;;;;;1.13;0.40;;;14.40;99.90;;;;;;4948664;28;20031;-82
2023/08/23 02:43:08;;;;;;;0.90;0.40;;;14.30;99.90;;;;;;4964736;28;20029;-84
2023/08/23 02:45:40;;;;;;;1.17;0.50;;;14.30;99.90;;;;;;4940556;28;20035;-86
2023/08/23 02:48:10;;;;;;;2.10;0.50;;;14.30;99.90;;;;;;4940727;28;20070;-82
2023/08/23 02:50:36;;;;;;;1.17;0.40;;;14.20;99.90;;;;;;4957108;28;20101;-82
2023/08/23 02:53:02;;;;;;;1.02;0.40;;;14.20;99.90;;;;;;4943967;28;20126;-84
2023/08/23 02:55:28;;;;;;;2.08;0.70;;;14.20;99.90;;;;;;4959363;28;20110;-83
2023/08/23 02:57:55;;;;;;;1.50;0.50;;;14.20;99.90;;;;;;4942746;28;20027;-83
2023/08/23 03:00:20;;;;;;;2.13;0.55;;;14.10;99.90;;;;;;4960634;28;20546;-80
2023/08/23 03:02:46;;;;;;;1.40;0.50;;;14.10;99.90;;;;;;4943091;28;20023;-85
2023/08/23 03:05:12;;;;;;;1.13;0.40;;;14.20;99.90;;;;;;4957748;28;20110;-84
2023/08/23 03:07:38;;;;;;;1.05;0.45;;;14.10;99.90;;;;;;4957038;28;20106;-81
2023/08/23 03:10:04;;;;;;;1.17;0.40;;;14.10;99.90;;;;;;4948217;28;20463;-87
2023/08/23 03:12:30;;;;;;;1.33;0.50;;;14.10;99.90;;;;;;4954222;28;20535;-81
2023/08/23 03:14:57;;;;;;;1.15;0.55;;;14.10;99.90;;;;;;4958498;28;20030;-82
2023/08/23 03:17:22;;;;;;;1.50;0.60;;;14.10;99.90;;;;;;4946837;28;20067;-83
2023/08/23 03:19:48;;;;;;;1.30;0.50;;;14.10;99.90;;;;;;4944144;28;20054;-83
2023/08/23 03:22:15;;;;;;;2.85;0.68;;;14.10;99.90;;;;;;4944660;28;20026;-81
2023/08/23 03:24:41;;;;;;;1.13;0.50;;;14.10;99.90;;;;;;4956012;28;20110;-82
2023/08/23 03:27:07;;;;;;;1.85;0.50;;;14.10;99.90;;;;;;4955728;28;20705;-81
2023/08/23 03:29:33;;;;;;;1.33;0.70;;;14.10;99.90;;;;;;4947493;28;20035;-81
2023/08/23 03:31:59;;;;;;;1.00;0.50;;;14.10;99.90;;;;;;4960326;28;20487;-82
2023/08/23 03:34:25;;;;;;;2.13;0.60;;;14.10;99.90;;;;;;4952872;28;20031;-81
2023/08/23 03:36:50;;;;;;;1.27;0.50;;;14.20;99.90;;;;;;4961302;28;20035;-81
2023/08/23 03:39:16;;;;;;;1.38;0.57;;;14.10;99.90;;;;;;4943802;28;20099;-81
2023/08/23 03:41:43;;;;;;;1.67;0.60;;;14.20;99.90;;;;;;4953482;28;20026;-83
2023/08/23 03:44:08;;;;;;;2.30;0.68;;;14.20;99.90;;;;;;4945520;28;20033;-84
2023/08/23 03:46:34;;;;;;;1.70;0.63;;;14.20;99.90;;;;;;4944995;28;20539;-81
2023/08/23 03:49:00;;;;;;;1.20;0.50;;;14.10;99.90;;;;;;4939846;28;20078;-80
2023/08/23 03:51:25;;;;;;;1.73;0.60;;;14.20;99.90;;;;;;4964983;28;20118;-84
2023/08/23 03:53:51;;;;;;;1.30;0.50;;;14.10;99.90;;;;;;4941865;28;20110;-81
2023/08/23 03:56:17;;;;;;;1.60;0.60;;;14.10;99.90;;;;;;4943353;28;20027;-83
2023/08/23 03:58:43;;;;;;;2.17;0.60;;;14.00;99.90;;;;;;4955234;28;20023;-82
2023/08/23 04:01:09;;;;;;;1.52;0.60;;;14.00;99.90;;;;;;4942820;28;20028;-83
2023/08/23 04:03:34;;;;;;;1.45;0.60;;;14.00;99.90;;;;;;4955043;28;20054;-82
2023/08/23 04:06:02;;;;;;;1.70;0.77;;;14.00;99.90;;;;;;4959859;28;20039;-81
2023/08/23 04:08:28;;;;;;;1.40;0.60;;;14.00;99.90;;;;;;4962355;28;20035;-81
2023/08/23 04:10:53;;;;;;;1.90;0.65;;;14.00;99.90;;;;;;4961156;28;20033;-81
2023/08/23 04:13:20;;;;;;;1.73;0.60;;;14.00;99.90;;;;;;4955442;28;20640;-82
2023/08/23 04:15:48;;;;;;;2.45;0.68;;;14.00;99.90;;;;;;4960007;28;20477;-80
2023/08/23 04:18:13;;;;;;;1.45;0.50;;;13.90;99.90;;;;;;4946269;28;20035;-80
2023/08/23 04:20:41;;;;;;;1.30;0.60;;;14.00;99.90;;;;;;4946120;28;20022;-82
2023/08/23 04:23:07;;;;;;;2.38;0.70;;;14.00;99.90;;;;;;4950371;28;20059;-81
2023/08/23 04:25:33;;;;;;;1.45;0.63;;;13.90;99.90;;;;;;4968855;28;20044;-82
2023/08/23 04:27:59;;;;;;;1.40;0.57;;;13.90;99.90;;;;;;4945418;28;20039;-82
2023/08/23 04:30:25;;;;;;;1.92;0.70;;;13.90;99.90;;;;;;4964915;28;20065;-83
2023/08/23 04:32:56;;;;;;;2.10;0.90;;;14.00;99.90;;;;;;4949539;28;20114;-82
2023/08/23 04:35:22;;;;;;;1.70;0.70;;;14.00;99.90;;;;;;4942743;28;20126;-83
2023/08/23 04:37:48;;;;;;;2.65;0.70;;;13.90;99.90;;;;;;4961544;28;20027;-82
2023/08/23 04:40:14;;;;;;;2.05;0.70;;;13.90;99.90;;;;;;4955978;28;20022;-82
2023/08/23 04:42:39;;;;;;;2.15;0.68;;;13.80;99.90;;;;;;4958250;28;20077;-85
2023/08/23 04:45:06;;;;;;;1.45;0.63;;;13.80;99.90;;;;;;4965497;28;20027;-81
2023/08/23 04:47:32;;;;;;;1.52;0.70;;;13.90;99.90;;;;;;4949163;28;20044;-81
2023/08/23 04:49:58;;;;;;;1.85;0.80;;;14.00;99.90;;;;;;4962776;28;20510;-84
2023/08/23 04:52:23;;;;;;;2.35;0.80;;;14.00;99.90;;;;;;4944165;28;20062;-82
2023/08/23 04:54:49;;;;;;;2.40;0.65;;;14.00;99.90;;;;;;4945851;28;20028;-82
2023/08/23 04:57:16;;;;;;;2.13;0.60;;;14.00;99.90;;;;;;4972487;28;20110;-83
2023/08/23 04:59:42;;;;;;;1.67;0.50;;;14.00;99.90;;;;;;4966281;28;20023;-81
2023/08/23 05:02:08;;;;;;;1.30;0.50;;;14.10;99.90;;;;;;4950784;28;20388;-82
2023/08/23 05:04:33;;;;;;;2.22;0.68;;;14.10;99.90;;;;;;4964581;28;20122;-82
2023/08/23 05:06:59;;;;;;;1.88;0.60;;;14.10;99.90;;;;;;4945703;28;20036;-83
2023/08/23 05:09:26;;;;;;;1.52;0.63;;;14.10;99.90;;;;;;4947508;28;20137;-83
2023/08/23 05:11:52;;;;;;;2.50;0.70;;;14.10;99.90;;;;;;4943709;28;20387;-83
2023/08/23 05:14:17;;;;;;;1.42;0.50;;;14.20;99.90;;;;;;4964981;28;20024;-81
2023/08/23 05:16:43;;;;;;;1.50;0.60;;;14.20;99.90;;;;;;4943521;28;20019;-81
2023/08/23 05:19:09;;;;;;;2.13;0.80;;;14.20;99.90;;;;;;4950375;28;20058;-88
2023/08/23 05:21:37;;;;;;;1.48;0.70;;;14.20;99.90;;;;;;4931327;28;20860;-82
2023/08/23 05:24:03;;;;;;;3.50;0.60;;;14.30;99.90;;;;;;4947058;28;20065;-84
2023/08/23 05:26:29;;;;;;;1.48;0.70;;;14.40;99.90;;;;;;4949123;28;20554;-81
2023/08/23 05:28:55;;;;;;;1.35;0.60;;;14.50;99.90;;;;;;4961793;28;20344;-82
2023/08/23 05:31:22;;;;;;;1.45;0.57;;;14.50;99.90;;;;;;4949782;28;20037;-82
2023/08/23 05:33:48;;;;;;;1.33;0.60;;;14.50;99.90;;;;;;4970563;28;20031;-83
2023/08/23 05:36:15;;;;;;;1.40;0.60;;;14.70;99.90;;;;;;4965368;28;20031;-81
2023/08/23 05:38:42;;;;;;;1.20;0.50;;;14.80;99.90;;;;;;4962531;28;20528;-82
2023/08/23 05:41:08;;;;;;;1.00;0.50;;;14.80;99.90;;;;;;4945588;28;20035;-82
2023/08/23 05:43:34;;;;;;;1.13;0.50;;;14.90;99.90;;;;;;4960878;28;20391;-81
2023/08/23 05:46:00;;;;;;;2.47;0.60;;;14.90;99.90;;;;;;4955864;28;20093;-81
2023/08/23 05:48:25;;;;;;;2.30;0.50;;;15.00;99.90;;;;;;4960700;28;20114;-85
2023/08/23 05:50:51;;;;;;;1.50;0.50;;;15.10;99.90;;;;;;4970764;28;20031;-82
2023/08/23 05:53:19;;;;;;;3.70;0.60;;;15.10;99.90;;;;;;4952722;28;20039;-86
2023/08/23 05:55:50;;;;;;;1.73;0.80;;;15.20;99.90;;;;;;4960620;28;20023;-81
2023/08/23 05:58:17;;;;;;;1.65;0.50;;;15.20;99.90;;;;;;4947036;28;20030;-87
2023/08/23 06:00:44;;;;;;;1.63;0.52;;;15.30;99.90;;;;;;4971159;28;20035;-81
2023/08/23 06:03:10;;;;;;;2.50;0.70;;;15.40;99.90;;;;;;4951756;28;20609;-81
2023/08/23 06:05:36;;;;;;;1.45;0.70;;;15.50;99.90;;;;;;4964496;28;20043;-81
2023/08/23 06:08:05;;;;;;;2.40;0.68;;;15.70;99.90;;;;;;4956774;28;20130;-83
2023/08/23 06:10:31;;;;;;;2.13;0.80;;;15.80;99.90;;;;;;4962439;28;20729;-81
2023/08/23 06:12:57;;;;;;;2.60;0.70;;;15.80;99.90;;;;;;4948959;28;20399;-81
2023/08/23 06:15:22;;;;;;;2.90;0.75;;;15.90;99.90;;;;;;4965692;28;20042;-81
2023/08/23 06:17:49;;;;;;;1.88;0.70;;;16.00;99.90;;;;;;4963854;28;20101;-82
2023/08/23 06:20:16;;;;;;;2.33;0.70;;;16.00;99.90;;;;;;4941855;29;20118;-84
2023/08/23 06:22:43;;;;;;;2.28;0.98;;;16.10;99.90;;;;;;4956341;28;20038;-81
2023/08/23 06:25:09;;;;;;;2.20;0.80;;;16.40;99.90;;;;;;4960306;28;20175;-85
2023/08/23 06:27:35;;;;;;;2.72;0.82;;;16.40;99.90;;;;;;4943506;28;20519;-82
2023/08/23 06:30:02;;;;;;;2.15;0.88;;;16.50;99.90;;;;;;4950892;28;20047;-81
2023/08/23 06:32:28;;;;;;;1.95;0.70;;;16.60;99.90;;;;;;4962528;28;20031;-83
2023/08/23 06:34:54;;;;;;;2.70;1.05;;;16.80;99.90;;;;;;4942376;28;20031;-81
2023/08/23 06:37:21;;;;;;;1.70;0.80;;;17.10;99.90;;;;;;4961697;28;20468;-81
2023/08/23 06:39:48;;;;;;;2.53;0.85;;;17.20;99.90;;;;;;4958732;28;20069;-81
2023/08/23 06:42:14;;;;;;;1.92;0.82;;;17.50;99.90;;;;;;4961474;28;20031;-83
2023/08/23 06:44:39;;;;;;;1.98;0.95;;;17.60;99.90;;;;;;4959872;28;20106;-80
2023/08/23 06:47:06;;;;;;;1.70;0.73;;;17.90;99.90;;;;;;4960940;28;20058;-81
2023/08/23 06:49:32;;;;;;;2.05;0.80;;;18.10;99.90;;;;;;4941265;28;20037;-81
2023/08/23 06:51:58;;;;;;;1.98;0.95;;;18.40;99.90;;;;;;4949259;28;20470;-82
2023/08/23 06:54:26;;;;;;;3.47;0.90;;;18.60;99.90;;;;;;4962032;28;20080;-86
2023/08/23 06:56:51;;;;;;;2.20;0.90;;;18.80;99.90;;;;;;4964415;28;20049;-81
2023/08/23 06:59:17;;;;;;;2.05;1.08;;;19.00;99.90;;;;;;4952682;28;20116;-81
2023/08/23 07:01:43;;;;;;;2.28;0.70;;;19.10;99.90;;;;;;4954425;28;20031;-81
2023/08/23 07:04:08;;;;;;;2.53;0.80;;;19.30;99.90;;;;;;4951169;28;20133;-81
2023/08/23 07:06:34;;;;;;;2.28;0.73;;;19.50;99.90;;;;;;4960181;28;20512;-81
2023/08/23 07:09:00;;;;;;;3.08;0.80;;;19.70;99.90;;;;;;4944719;28;20049;-81
2023/08/23 07:11:25;;;;;;;2.25;0.90;;;19.90;99.90;;;;;;4956631;28;20118;-82
2023/08/23 07:13:51;;;;;;;3.75;1.17;;;20.00;99.90;;;;;;4959296;28;20031;-82
2023/08/23 07:16:17;;;;;;;4.45;1.30;;;20.10;99.90;;;;;;4963268;28;20050;-81
2023/08/23 07:18:42;;;;;;;4.63;1.42;;;20.30;99.90;;;;;;4957577;28;20031;-83
2023/08/23 07:21:09;;;;;;;4.07;1.25;;;20.30;99.90;;;;;;4950076;28;20033;-83
2023/08/23 07:23:35;;;;;;;2.15;0.93;;;20.50;99.90;;;;;;4956836;28;20035;-79
2023/08/23 07:26:03;;;;;;;2.78;0.90;;;20.40;99.90;;;;;;4953265;28;20451;-81
2023/08/23 07:28:29;;;;;;;7.80;3.03;;;20.30;99.90;;;;;;4958623;28;20035;-83
2023/08/23 07:30:57;;;;;;;3.78;1.88;;;20.10;99.90;;;;;;4956827;28;20042;-81
2023/08/23 07:33:26;;;;;;;4.13;1.45;;;20.30;99.90;;;;;;4955099;28;20078;-82
2023/08/23 07:36:00;;;;;;;2.63;0.80;;;20.70;99.90;;;;;;4948163;28;20034;-84
2023/08/23 07:38:26;;;;;;;1.92;0.90;;;20.90;99.90;;;;;;4961593;28;20093;-81
2023/08/23 07:40:57;;;;;;;3.08;1.85;;;20.90;99.90;;;;;;4956046;28;20097;-81
2023/08/23 07:43:23;;;;;;;4.95;3.15;;;20.60;99.90;;;;;;4955357;28;20651;-83
2023/08/23 07:45:56;;;;;;;4.43;2.13;;;20.50;99.90;;;;;;4953641;28;20027;-82
2023/08/23 07:48:22;;;;;;;3.65;1.70;;;20.60;99.90;;;;;;4956576;28;20034;-81
2023/08/23 07:50:49;;;;;;;2.90;0.90;;;21.00;99.90;;;;;;4946473;28;20031;-82
2023/08/23 07:53:16;;;;;;;3.60;1.05;;;21.30;99.90;;;;;;4947678;28;20034;-82
2023/08/23 07:55:41;;;;;;;2.10;1.05;;;21.60;99.90;;;;;;4974344;28;20023;-82
2023/08/23 07:58:07;;;;;;;2.28;1.17;;;21.70;99.90;;;;;;4961280;28;20051;-82
2023/08/23 08:00:33;;;;;;;3.10;1.10;;;21.60;99.90;;;;;;4962001;28;20076;-82
2023/08/23 08:02:59;;;;;;;1.80;0.88;;;21.90;99.90;;;;;;4943417;28;20035;-84
2023/08/23 08:05:25;;;;;;;2.70;1.45;;;22.00;99.90;;;;;;4945788;28;20038;-81
2023/08/23 08:07:50;;;;;;;3.15;1.10;;;21.50;99.90;;;;;;4956075;28;20046;-82
2023/08/23 08:10:16;;;;;;;2.80;1.13;;;21.70;99.90;;;;;;4958011;28;20491;-81
2023/08/23 08:12:42;;;;;;;2.78;2.05;;;21.80;99.90;;;;;;4960909;28;20150;-82
2023/08/23 08:15:09;;;;;;;3.78;1.90;;;21.70;99.90;;;;;;4964897;28;20472;-82
2023/08/23 08:17:35;;;;;;;2.72;1.27;;;21.80;99.90;;;;;;4963741;28;20019;-82
2023/08/23 08:20:05;;;;;;;4.95;1.90;;;21.80;99.90;;;;;;4945494;28;20508;-80
2023/08/23 08:22:31;;;;;;;3.95;1.13;;;21.90;99.90;;;;;;4965876;28;20043;-82
2023/08/23 08:24:57;;;;;;;2.90;0.70;;;21.90;99.90;;;;;;4955757;28;20031;-81
2023/08/23 08:27:23;;;;;;;3.53;1.08;;;22.50;99.90;;;;;;4943239;28;20484;-82
2023/08/23 08:29:49;;;;;;;2.88;0.60;;;22.20;99.90;;;;;;4963483;28;20038;-84
2023/08/23 08:32:15;;;;;;;1.80;0.60;;;22.90;99.90;;;;;;4962435;28;20038;-80
2023/08/23 08:34:40;;;;;;;2.10;0.50;;;23.10;99.90;;;;;;4971212;28;20301;-83
2023/08/23 08:37:06;;;;;;;1.73;0.70;;;22.80;99.90;;;;;;4963786;28;20561;-81
2023/08/23 08:39:32;;;;;;;2.45;0.50;;;22.70;99.90;;;;;;4959250;28;20387;-81
2023/08/23 08:41:59;;;;;;;1.75;0.70;;;23.00;99.90;;;;;;4964629;28;20047;-83
2023/08/23 08:44:25;;;;;;;2.25;0.80;;;22.60;99.90;;;;;;4963120;28;22579;-82
2023/08/23 08:46:51;;;;;;;3.45;0.93;;;22.50;99.90;;;;;;4959429;28;20475;-81
2023/08/23 08:49:18;;;;;;;2.92;0.85;;;22.40;99.90;;;;;;4957328;28;20391;-81
2023/08/23 08:51:47;;;;;;;4.90;1.70;;;22.60;99.90;;;;;;4960318;28;20042;-83
2023/08/23 08:54:17;;;;;;;2.72;1.10;;;22.60;99.90;;;;;;4958263;28;20035;-82
2023/08/23 08:56:47;;;;;;;1.30;0.57;;;22.60;99.90;;;;;;4958741;28;20026;-81
2023/08/23 08:59:15;;;;;;;1.48;0.57;;;23.30;99.90;;;;;;4959169;28;20089;-81
2023/08/23 09:01:43;;;;;;;1.90;0.50;;;23.80;99.90;;;;;;4960261;28;20507;-82
2023/08/23 09:04:10;;;;;;;3.60;0.88;;;23.60;99.90;;;;;;4958355;28;20047;-84
2023/08/23 09:06:39;;;;;;;1.52;0.50;;;23.20;99.90;;;;;;4973454;28;20036;-81
2023/08/23 09:09:04;;;;;;;3.22;0.90;;;23.30;99.90;;;;;;4956027;28;21232;-80
2023/08/23 09:11:30;;;;;;;2.35;0.93;;;23.40;99.90;;;;;;4958903;28;20046;-81
2023/08/23 09:13:56;;;;;;;1.58;0.52;;;24.00;99.90;;;;;;4955678;28;20057;-81
2023/08/23 09:16:26;;;;;;;1.95;0.40;;;24.00;99.90;;;;;;4958469;28;20464;-81
2023/08/23 09:18:52;;;;;;;2.58;0.52;;;24.10;99.90;;;;;;4958383;28;20054;-81
2023/08/23 09:21:24;;;;;;;3.30;0.80;;;23.60;99.90;;;;;;4962048;28;20554;-84
2023/08/23 09:23:50;;;;;;;2.65;0.68;;;23.30;99.90;;;;;;4945565;28;20479;-82
2023/08/23 09:26:16;;;;;;;1.77;0.50;;;23.40;99.90;;;;;;4959427;28;20027;-81
2023/08/23 09:28:42;;;;;;;2.22;0.52;;;23.40;99.90;;;;;;4958603;28;20039;-81
2023/08/23 09:31:14;;;;;;;3.10;0.80;;;23.90;99.90;;;;;;4957700;28;20157;-83
2023/08/23 09:33:40;;;;;;;2.55;0.50;;;23.80;99.90;;;;;;4947152;28;20294;-82
2023/08/23 09:36:06;;;;;;;1.55;0.60;;;23.60;99.90;;;;;;4958043;28;20038;-81
2023/08/23 09:38:32;;;;;;;1.70;0.50;;;23.50;99.90;;;;;;4972819;28;20046;-82
2023/08/23 09:40:57;;;;;;;2.95;0.40;;;23.50;99.90;;;;;;4957262;28;20035;-81
2023/08/23 09:43:24;;;;;;;1.52;0.40;;;23.70;99.90;;;;;;4961615;28;20035;-81
2023/08/23 09:45:50;;;;;;;1.02;0.20;;;24.10;99.90;;;;;;4955426;28;20039;-81
2023/08/23 09:48:20;;;;;;;1.48;0.20;;;24.60;99.90;;;;;;4961941;28;20030;-80
2023/08/23 09:50:49;;;;;;;0.50;0.20;;;24.30;99.90;;;;;;4961541;28;20058;-84
2023/08/23 09:53:28;;;;;;;0.80;0.20;;;24.80;99.90;;;;;;4940396;28;20129;-81
2023/08/23 09:55:54;;;;;;;2.10;0.20;;;25.30;99.90;;;;;;4944062;28;20490;-81
2023/08/23 09:58:20;;;;;;;0.80;0.30;;;25.30;99.90;;;;;;4957208;28;20400;-83
2023/08/23 10:00:49;;;;;;;0.50;0.20;;;25.00;99.90;;;;;;4958298;28;20395;-81
2023/08/23 10:03:15;;;;;;;1.17;0.20;;;25.60;99.90;;;;;;4956573;28;20357;-82
2023/08/23 10:05:43;;;;;;;1.33;0.30;;;25.90;99.90;;;;;;4958999;28;20046;-81
2023/08/23 10:08:10;;;;;;;1.48;0.30;;;25.70;99.90;;;;;;4945917;28;20105;-81
2023/08/23 10:10:37;;;;;;;1.35;0.30;;;25.70;99.90;;;;;;4953185;28;20027;-81
2023/08/23 10:13:05;;;;;;;1.88;0.30;;;25.40;99.90;;;;;;4956080;28;20026;-81
2023/08/23 10:15:38;;;;;;;1.98;0.30;;;25.80;99.90;;;;;;4955454;28;20129;-83
2023/08/23 10:18:09;;;;;;;2.53;0.80;;;26.30;99.90;;;;;;4957683;28;20082;-81
2023/08/23 10:20:36;;;;;;;1.65;0.60;;;25.30;99.90;;;;;;4944503;28;20037;-81
2023/08/23 10:23:13;;;;;;;1.77;0.40;;;24.80;99.90;;;;;;4958109;28;20037;-82
2023/08/23 10:25:40;;;;;;;2.60;0.70;;;24.80;99.90;;;;;;4956742;28;20049;-84
2023/08/23 10:28:07;;;;;;;1.20;0.40;;;25.00;99.90;;;;;;4942541;28;20434;-83
2023/08/23 10:30:33;;;;;;;3.28;0.60;;;25.60;99.90;;;;;;4959523;28;20035;-84
2023/08/23 10:33:10;;;;;;;1.38;0.40;;;25.40;99.90;;;;;;4942182;28;20511;-83
2023/08/23 10:35:37;;;;;;;2.33;0.50;;;25.90;99.90;;;;;;4955056;28;20046;-82
2023/08/23 10:38:05;;;;;;;1.83;0.60;;;25.60;99.90;;;;;;4941812;28;20117;-81
2023/08/23 10:40:31;;;;;;;1.75;0.40;;;25.40;99.90;;;;;;4961062;28;20089;-81
2023/08/23 10:42:58;;;;;;;2.38;0.43;;;25.50;99.90;;;;;;4956241;28;20057;-82
2023/08/23 10:45:25;;;;;;;1.35;0.30;;;25.70;99.90;;;;;;4963268;28;20031;-82
2023/08/23 10:47:51;;;;;;;1.75;0.40;;;26.40;99.90;;;;;;4956080;28;20626;-83
2023/08/23 10:50:19;;;;;;;1.50;0.40;;;26.50;99.90;;;;;;4956839;28;20549;-81
2023/08/23 10:52:48;;;;;;;2.58;0.50;;;25.80;99.90;;;;;;4961313;28;20479;-80
2023/08/23 10:55:14;;;;;;;2.13;0.80;;;25.40;99.90;;;;;;4955990;28;20026;-84
2023/08/23 10:57:39;;;;;;;1.77;0.40;;;25.10;99.90;;;;;;4943757;28;20081;-82
2023/08/23 11:00:06;;;;;;;3.35;0.40;;;25.50;99.90;;;;;;4962293;28;20031;-81
2023/08/23 11:02:32;;;;;;;4.22;0.30;;;26.30;99.90;;;;;;4955897;28;20058;-81
2023/08/23 11:04:58;;;;;;;1.73;0.30;;;26.70;99.90;;;;;;4944447;28;20073;-81
2023/08/23 11:07:27;;;;;;;1.10;0.20;;;26.90;99.90;;;;;;4956570;28;20031;-82
2023/08/23 11:09:54;;;;;;;1.58;0.45;;;27.10;99.90;;;;;;4955813;28;20480;-82
2023/08/23 11:12:20;;;;;;;1.10;0.30;;;25.90;99.90;;;;;;4958039;28;20035;-81
2023/08/23 11:14:46;;;;;;;1.50;0.40;;;25.90;99.90;;;;;;4944575;28;20027;-81
2023/08/23 11:17:11;;;;;;;1.52;0.60;;;26.30;99.90;;;;;;4939696;28;20042;-81
2023/08/23 11:19:41;;;;;;;2.05;0.60;;;25.80;99.90;;;;;;4954219;28;20030;-81
2023/08/23 11:22:07;;;;;;;1.30;0.40;;;25.90;99.90;;;;;;4956340;28;20329;-82
2023/08/23 11:24:38;;;;;;;3.00;0.40;;;25.80;99.90;;;;;;4958396;28;20606;-82
2023/08/23 11:27:10;;;;;;;1.50;0.50;;;25.70;99.90;;;;;;4959972;28;20039;-81
2023/08/23 11:29:36;;;;;;;2.03;0.50;;;25.60;99.90;;;;;;4962055;28;20038;-82
2023/08/23 11:32:02;;;;;;;1.60;0.40;;;25.50;99.90;;;;;;4960180;28;20518;-81
2023/08/23 11:34:27;;;;;;;1.05;0.40;;;26.00;99.90;;;;;;4959186;28;20179;-81
2023/08/23 11:36:53;;;;;;;1.15;0.30;;;26.10;99.90;;;;;;4959042;28;20380;-82
2023/08/23 11:39:19;;;;;;;2.03;0.47;;;26.70;99.90;;;;;;4963697;28;20027;-80
2023/08/23 11:41:48;;;;;;;1.75;0.50;;;26.70;99.90;;;;;;4960374;28;20713;-82
2023/08/23 11:44:13;;;;;;;3.58;0.57;;;26.10;99.90;;;;;;4959258;28;20508;-82
2023/08/23 11:46:39;;;;;;;1.42;0.40;;;25.70;99.90;;;;;;4962979;28;20122;-81
2023/08/23 11:49:06;;;;;;;2.40;0.50;;;26.00;99.90;;;;;;4962410;28;20039;-82
2023/08/23 11:51:47;;;;;;;1.00;0.32;;;26.20;99.90;;;;;;4965207;28;20117;-81
2023/08/23 11:54:14;;;;;;;1.83;0.50;;;25.60;99.90;;;;;;4947452;28;20027;-83
2023/08/23 11:56:44;;;;;;;1.25;0.40;;;26.00;99.90;;;;;;4969120;28;20432;-81
2023/08/23 11:59:11;;;;;;;0.70;0.20;;;25.90;99.90;;;;;;4957549;28;20061;-81
2023/08/23 12:01:42;;;;;;;0.80;0.30;;;26.70;99.90;;;;;;4963324;28;20031;-84
2023/08/23 12:04:10;;;;;;;1.05;0.22;;;26.90;99.90;;;;;;4958426;28;20081;-81
2023/08/23 12:06:36;;;;;;;2.38;0.50;;;26.40;99.90;;;;;;4957936;28;20510;-81
2023/08/23 12:09:03;;;;;;;1.48;0.35;;;25.90;99.90;;;;;;4963561;28;20446;-83
2023/08/23 12:11:32;;;;;;;0.75;0.30;;;26.10;99.90;;;;;;4965606;28;20030;-82
2023/08/23 12:14:04;;;;;;;1.63;0.20;;;26.80;99.90;;;;;;4960081;28;20575;-83
2023/08/23 12:16:31;;;;;;;0.90;0.20;;;26.80;99.90;;;;;;4945077;28;20444;-81
2023/08/23 12:18:56;;;;;;;0.80;0.30;;;26.50;99.90;;;;;;4957649;28;20490;-83
2023/08/23 12:21:22;;;;;;;2.40;0.65;;;25.90;99.90;;;;;;4961300;28;20030;-82
2023/08/23 12:23:48;;;;;;;0.98;0.30;;;26.00;99.90;;;;;;4955915;28;20054;-81
2023/08/23 12:26:14;;;;;;;1.40;0.40;;;26.00;99.90;;;;;;4948186;28;20479;-82
2023/08/23 12:28:40;;;;;;;1.45;0.30;;;26.10;99.90;;;;;;4945901;28;20468;-80
2023/08/23 12:31:05;;;;;;;1.08;0.30;;;26.80;99.90;;;;;;4964216;28;20034;-82
2023/08/23 12:33:31;;;;;;;1.20;0.40;;;26.70;99.90;;;;;;4958751;28;20034;-83
2023/08/23 12:35:57;;;;;;;1.70;0.38;;;25.90;99.90;;;;;;4962081;28;20310;-82
2023/08/23 12:38:22;;;;;;;0.70;0.20;;;26.00;99.90;;;;;;4958693;28;20015;-82
2023/08/23 12:40:48;;;;;;;0.75;0.25;;;26.80;99.90;;;;;;4962883;28;20043;-81
2023/08/23 12:43:14;;;;;;;1.02;0.20;;;27.10;99.90;;;;;;4957289;28;20030;-82
2023/08/23 12:45:39;;;;;;;1.10;0.20;;;26.80;99.90;;;;;;4958721;28;20023;-80